sensor_id;sensor_type;location;lat;lon;timestamp;P1;durP1;ratioP1;P2;durP2;ratioP2
7539;SDS011;3811;49.006;12.076;2023-10-09T00:02:12;1.60;;;1.50;;
7539;SDS011;3811;49.006;12.076;2023-10-09T00:04:40;1.83;;;1.27;;
7539;SDS011;3811;49.006;12.076;2023-10-09T00:07:10;1.53;;;1.43;;
7539;SDS011;3811;49.006;12.076;2023-10-09T00:09:39;1.30;;;1.20;;
7539;SDS011;3811;49.006;12.076;2023-10-09T00:12:15;1.13;;;1.13;;
7539;SDS011;3811;49.006;12.076;2023-10-09T00:14:47;1.50;;;1.40;;
7539;SDS011;3811;49.006;12.076;2023-10-09T00:17:16;1.00;;;1.00;;
7539;SDS011;3811;49.006;12.076;2023-10-09T00:19:48;1.40;;;1.30;;
7539;SDS011;3811;49.006;12.076;2023-10-09T00:22:16;3.00;;;1.70;;
7539;SDS011;3811;49.006;12.076;2023-10-09T00:24:55;1.20;;;1.20;;
7539;SDS011;3811;49.006;12.076;2023-10-09T00:27:38;1.60;;;1.50;;
7539;SDS011;3811;49.006;12.076;2023-10-09T00:30:08;1.30;;;1.30;;
7539;SDS011;3811;49.006;12.076;2023-10-09T00:32:36;1.10;;;1.10;;
7539;SDS011;3811;49.006;12.076;2023-10-09T00:35:11;1.73;;;1.63;;
7539;SDS011;3811;49.006;12.076;2023-10-09T00:37:54;1.33;;;1.23;;
7539;SDS011;3811;49.006;12.076;2023-10-09T00:40:43;1.60;;;1.40;;
7539;SDS011;3811;49.006;12.076;2023-10-09T00:43:13;1.53;;;1.43;;
7539;SDS011;3811;49.006;12.076;2023-10-09T00:45:40;3.20;;;1.60;;
7539;SDS011;3811;49.006;12.076;2023-10-09T00:48:09;2.27;;;1.77;;
7539;SDS011;3811;49.006;12.076;2023-10-09T00:50:39;1.40;;;1.30;;
7539;SDS011;3811;49.006;12.076;2023-10-09T00:53:13;1.47;;;1.33;;
7539;SDS011;3811;49.006;12.076;2023-10-09T00:55:44;1.27;;;1.17;;
7539;SDS011;3811;49.006;12.076;2023-10-09T00:58:21;1.90;;;1.80;;
7539;SDS011;3811;49.006;12.076;2023-10-09T01:00:52;1.83;;;1.73;;
7539;SDS011;3811;49.006;12.076;2023-10-09T01:03:19;1.47;;;1.37;;
7539;SDS011;3811;49.006;12.076;2023-10-09T01:05:48;3.90;;;1.93;;
7539;SDS011;3811;49.006;12.076;2023-10-09T01:08:22;1.67;;;1.57;;
7539;SDS011;3811;49.006;12.076;2023-10-09T01:10:57;1.80;;;1.70;;
7539;SDS011;3811;49.006;12.076;2023-10-09T01:13:34;2.17;;;1.87;;
7539;SDS011;3811;49.006;12.076;2023-10-09T01:16:18;2.13;;;1.90;;
7539;SDS011;3811;49.006;12.076;2023-10-09T01:18:47;3.60;;;2.67;;
7539;SDS011;3811;49.006;12.076;2023-10-09T01:21:16;3.57;;;2.10;;
7539;SDS011;3811;49.006;12.076;2023-10-09T01:23:50;2.10;;;1.90;;
7539;SDS011;3811;49.006;12.076;2023-10-09T01:26:34;2.23;;;2.03;;
7539;SDS011;3811;49.006;12.076;2023-10-09T01:29:09;3.00;;;2.10;;
7539;SDS011;3811;49.006;12.076;2023-10-09T01:31:40;2.37;;;2.17;;
7539;SDS011;3811;49.006;12.076;2023-10-09T01:34:16;4.60;;;2.97;;
7539;SDS011;3811;49.006;12.076;2023-10-09T01:36:44;2.93;;;2.63;;
7539;SDS011;3811;49.006;12.076;2023-10-09T01:39:15;4.57;;;3.37;;
7539;SDS011;3811;49.006;12.076;2023-10-09T01:41:51;5.67;;;2.90;;
7539;SDS011;3811;49.006;12.076;2023-10-09T01:44:23;3.07;;;2.77;;
7539;SDS011;3811;49.006;12.076;2023-10-09T01:46:52;3.50;;;2.83;;
7539;SDS011;3811;49.006;12.076;2023-10-09T01:49:22;6.03;;;3.00;;
7539;SDS011;3811;49.006;12.076;2023-10-09T01:51:55;4.30;;;3.37;;
7539;SDS011;3811;49.006;12.076;2023-10-09T01:54:26;4.27;;;3.23;;
7539;SDS011;3811;49.006;12.076;2023-10-09T01:57:02;3.13;;;2.67;;
7539;SDS011;3811;49.006;12.076;2023-10-09T01:59:34;4.43;;;2.80;;
7539;SDS011;3811;49.006;12.076;2023-10-09T02:02:03;3.27;;;2.60;;
7539;SDS011;3811;49.006;12.076;2023-10-09T02:04:40;3.90;;;3.33;;
7539;SDS011;3811;49.006;12.076;2023-10-09T02:07:07;4.13;;;2.63;;
7539;SDS011;3811;49.006;12.076;2023-10-09T02:09:36;4.20;;;2.70;;
7539;SDS011;3811;49.006;12.076;2023-10-09T02:12:12;4.67;;;2.20;;
7539;SDS011;3811;49.006;12.076;2023-10-09T02:14:39;3.50;;;2.70;;
7539;SDS011;3811;49.006;12.076;2023-10-09T02:17:09;2.70;;;2.50;;
7539;SDS011;3811;49.006;12.076;2023-10-09T02:19:43;3.30;;;2.63;;
7539;SDS011;3811;49.006;12.076;2023-10-09T02:22:15;4.63;;;3.60;;
7539;SDS011;3811;49.006;12.076;2023-10-09T02:24:44;2.77;;;2.57;;
7539;SDS011;3811;49.006;12.076;2023-10-09T02:27:23;6.03;;;3.30;;
7539;SDS011;3811;49.006;12.076;2023-10-09T02:30:18;3.70;;;3.13;;
7539;SDS011;3811;49.006;12.076;2023-10-09T02:32:52;4.63;;;2.90;;
7539;SDS011;3811;49.006;12.076;2023-10-09T02:35:24;4.70;;;3.07;;
7539;SDS011;3811;49.006;12.076;2023-10-09T02:37:56;5.10;;;3.40;;
7539;SDS011;3811;49.006;12.076;2023-10-09T02:40:27;5.70;;;2.93;;
7539;SDS011;3811;49.006;12.076;2023-10-09T02:42:58;5.20;;;3.73;;
7539;SDS011;3811;49.006;12.076;2023-10-09T02:45:25;4.27;;;3.20;;
7539;SDS011;3811;49.006;12.076;2023-10-09T02:48:03;4.63;;;2.73;;
7539;SDS011;3811;49.006;12.076;2023-10-09T02:50:36;3.37;;;3.10;;
7539;SDS011;3811;49.006;12.076;2023-10-09T02:53:09;5.23;;;3.37;;
7539;SDS011;3811;49.006;12.076;2023-10-09T02:55:45;3.17;;;2.83;;
7539;SDS011;3811;49.006;12.076;2023-10-09T02:58:29;3.50;;;3.00;;
7539;SDS011;3811;49.006;12.076;2023-10-09T03:00:57;5.97;;;3.43;;
7539;SDS011;3811;49.006;12.076;2023-10-09T03:03:25;3.67;;;2.80;;
7539;SDS011;3811;49.006;12.076;2023-10-09T03:05:53;4.23;;;3.40;;
7539;SDS011;3811;49.006;12.076;2023-10-09T03:08:20;3.43;;;3.13;;
7539;SDS011;3811;49.006;12.076;2023-10-09T03:10:49;2.60;;;2.33;;
7539;SDS011;3811;49.006;12.076;2023-10-09T03:13:16;3.77;;;2.73;;
7539;SDS011;3811;49.006;12.076;2023-10-09T03:15:45;3.27;;;2.97;;
7539;SDS011;3811;49.006;12.076;2023-10-09T03:18:13;3.27;;;2.70;;
7539;SDS011;3811;49.006;12.076;2023-10-09T03:20:41;2.93;;;2.63;;
7539;SDS011;3811;49.006;12.076;2023-10-09T03:23:09;3.83;;;2.93;;
7539;SDS011;3811;49.006;12.076;2023-10-09T03:25:39;4.67;;;2.97;;
7539;SDS011;3811;49.006;12.076;2023-10-09T03:28:12;4.10;;;2.63;;
7539;SDS011;3811;49.006;12.076;2023-10-09T03:30:40;3.70;;;3.10;;
7539;SDS011;3811;49.006;12.076;2023-10-09T03:33:12;5.40;;;3.10;;
7539;SDS011;3811;49.006;12.076;2023-10-09T03:35:39;3.17;;;2.43;;
7539;SDS011;3811;49.006;12.076;2023-10-09T03:38:06;2.90;;;2.50;;
7539;SDS011;3811;49.006;12.076;2023-10-09T03:40:37;4.83;;;3.03;;
7539;SDS011;3811;49.006;12.076;2023-10-09T03:43:07;4.73;;;2.33;;
7539;SDS011;3811;49.006;12.076;2023-10-09T03:45:37;4.90;;;2.07;;
7539;SDS011;3811;49.006;12.076;2023-10-09T03:48:10;3.57;;;2.73;;
7539;SDS011;3811;49.006;12.076;2023-10-09T03:50:46;4.57;;;2.93;;
7539;SDS011;3811;49.006;12.076;2023-10-09T03:53:14;2.93;;;2.60;;
7539;SDS011;3811;49.006;12.076;2023-10-09T03:55:41;3.30;;;2.90;;
7539;SDS011;3811;49.006;12.076;2023-10-09T03:58:09;3.07;;;2.77;;
7539;SDS011;3811;49.006;12.076;2023-10-09T04:00:40;2.93;;;2.43;;
7539;SDS011;3811;49.006;12.076;2023-10-09T04:03:11;5.07;;;3.30;;
7539;SDS011;3811;49.006;12.076;2023-10-09T04:05:39;4.47;;;2.63;;
7539;SDS011;3811;49.006;12.076;2023-10-09T04:08:07;4.07;;;2.97;;
7539;SDS011;3811;49.006;12.076;2023-10-09T04:10:38;4.27;;;3.10;;
7539;SDS011;3811;49.006;12.076;2023-10-09T04:13:17;3.60;;;3.00;;
7539;SDS011;3811;49.006;12.076;2023-10-09T04:15:50;5.97;;;4.10;;
7539;SDS011;3811;49.006;12.076;2023-10-09T04:18:19;3.20;;;2.43;;
7539;SDS011;3811;49.006;12.076;2023-10-09T04:20:53;3.83;;;3.00;;
7539;SDS011;3811;49.006;12.076;2023-10-09T04:23:37;6.47;;;3.37;;
7539;SDS011;3811;49.006;12.076;2023-10-09T04:26:25;3.07;;;2.77;;
7539;SDS011;3811;49.006;12.076;2023-10-09T04:28:51;4.47;;;2.63;;
7539;SDS011;3811;49.006;12.076;2023-10-09T04:31:20;4.10;;;2.83;;
7539;SDS011;3811;49.006;12.076;2023-10-09T04:33:57;2.97;;;2.73;;
7539;SDS011;3811;49.006;12.076;2023-10-09T04:36:38;3.87;;;3.33;;
7539;SDS011;3811;49.006;12.076;2023-10-09T04:39:12;5.43;;;2.83;;
7539;SDS011;3811;49.006;12.076;2023-10-09T04:42:01;4.23;;;2.87;;
7539;SDS011;3811;49.006;12.076;2023-10-09T04:45:02;5.27;;;3.10;;
7539;SDS011;3811;49.006;12.076;2023-10-09T04:47:59;3.33;;;2.67;;
7539;SDS011;3811;49.006;12.076;2023-10-09T04:50:31;2.77;;;2.50;;
7539;SDS011;3811;49.006;12.076;2023-10-09T04:53:28;3.07;;;2.53;;
7539;SDS011;3811;49.006;12.076;2023-10-09T04:56:04;4.60;;;3.07;;
7539;SDS011;3811;49.006;12.076;2023-10-09T04:58:40;3.93;;;2.37;;
7539;SDS011;3811;49.006;12.076;2023-10-09T05:01:08;4.50;;;3.27;;
7539;SDS011;3811;49.006;12.076;2023-10-09T05:03:42;4.40;;;3.17;;
7539;SDS011;3811;49.006;12.076;2023-10-09T05:06:09;5.33;;;2.90;;
7539;SDS011;3811;49.006;12.076;2023-10-09T05:08:54;3.70;;;3.30;;
7539;SDS011;3811;49.006;12.076;2023-10-09T05:11:33;2.87;;;2.37;;
7539;SDS011;3811;49.006;12.076;2023-10-09T05:14:18;3.50;;;3.17;;
7539;SDS011;3811;49.006;12.076;2023-10-09T05:16:52;3.00;;;2.70;;
7539;SDS011;3811;49.006;12.076;2023-10-09T05:19:27;3.23;;;2.60;;
7539;SDS011;3811;49.006;12.076;2023-10-09T05:22:40;5.50;;;2.90;;
7539;SDS011;3811;49.006;12.076;2023-10-09T05:25:18;3.83;;;3.30;;
7539;SDS011;3811;49.006;12.076;2023-10-09T05:28:05;5.33;;;3.10;;
7539;SDS011;3811;49.006;12.076;2023-10-09T05:30:46;3.90;;;3.50;;
7539;SDS011;3811;49.006;12.076;2023-10-09T05:33:20;5.73;;;3.33;;
7539;SDS011;3811;49.006;12.076;2023-10-09T05:36:00;3.57;;;3.20;;
7539;SDS011;3811;49.006;12.076;2023-10-09T05:38:44;4.47;;;3.27;;
7539;SDS011;3811;49.006;12.076;2023-10-09T05:41:23;3.30;;;3.00;;
7539;SDS011;3811;49.006;12.076;2023-10-09T05:44:08;3.63;;;3.00;;
7539;SDS011;3811;49.006;12.076;2023-10-09T05:46:55;3.30;;;2.93;;
7539;SDS011;3811;49.006;12.076;2023-10-09T05:49:40;5.47;;;2.93;;
7539;SDS011;3811;49.006;12.076;2023-10-09T05:52:21;3.70;;;2.50;;
7539;SDS011;3811;49.006;12.076;2023-10-09T05:55:08;4.93;;;2.90;;
7539;SDS011;3811;49.006;12.076;2023-10-09T05:58:06;3.70;;;2.90;;
7539;SDS011;3811;49.006;12.076;2023-10-09T06:01:05;3.53;;;3.20;;
7539;SDS011;3811;49.006;12.076;2023-10-09T06:03:46;3.93;;;3.53;;
7539;SDS011;3811;49.006;12.076;2023-10-09T06:06:19;3.97;;;3.20;;
7539;SDS011;3811;49.006;12.076;2023-10-09T06:09:01;4.20;;;3.50;;
7539;SDS011;3811;49.006;12.076;2023-10-09T06:11:51;5.67;;;2.70;;
7539;SDS011;3811;49.006;12.076;2023-10-09T06:14:41;7.03;;;3.03;;
7539;SDS011;3811;49.006;12.076;2023-10-09T06:17:29;10.30;;;3.67;;
7539;SDS011;3811;49.006;12.076;2023-10-09T06:20:09;5.07;;;4.10;;
7539;SDS011;3811;49.006;12.076;2023-10-09T06:22:50;6.67;;;3.47;;
7539;SDS011;3811;49.006;12.076;2023-10-09T06:25:25;4.30;;;3.03;;
7539;SDS011;3811;49.006;12.076;2023-10-09T06:27:58;5.87;;;3.57;;
7539;SDS011;3811;49.006;12.076;2023-10-09T06:30:27;3.47;;;3.17;;
7539;SDS011;3811;49.006;12.076;2023-10-09T06:32:59;4.83;;;3.27;;
7539;SDS011;3811;49.006;12.076;2023-10-09T06:35:45;3.23;;;2.87;;
7539;SDS011;3811;49.006;12.076;2023-10-09T06:38:19;9.03;;;3.43;;
7539;SDS011;3811;49.006;12.076;2023-10-09T06:40:50;4.03;;;3.50;;
7539;SDS011;3811;49.006;12.076;2023-10-09T06:43:35;4.97;;;3.73;;
7539;SDS011;3811;49.006;12.076;2023-10-09T06:46:16;3.60;;;3.30;;
7539;SDS011;3811;49.006;12.076;2023-10-09T06:49:00;4.60;;;3.53;;
7539;SDS011;3811;49.006;12.076;2023-10-09T06:51:49;2.73;;;2.53;;
7539;SDS011;3811;49.006;12.076;2023-10-09T06:54:20;4.13;;;3.40;;
7539;SDS011;3811;49.006;12.076;2023-10-09T06:56:52;5.47;;;3.47;;
7539;SDS011;3811;49.006;12.076;2023-10-09T06:59:39;4.73;;;3.47;;
7539;SDS011;3811;49.006;12.076;2023-10-09T07:02:28;3.83;;;3.37;;
7539;SDS011;3811;49.006;12.076;2023-10-09T07:05:11;6.40;;;3.10;;
7539;SDS011;3811;49.006;12.076;2023-10-09T07:07:42;2.83;;;2.63;;
7539;SDS011;3811;49.006;12.076;2023-10-09T07:10:20;4.37;;;3.10;;
7539;SDS011;3811;49.006;12.076;2023-10-09T07:12:59;5.23;;;3.57;;
7539;SDS011;3811;49.006;12.076;2023-10-09T07:15:27;3.17;;;2.87;;
7539;SDS011;3811;49.006;12.076;2023-10-09T07:18:11;4.30;;;3.47;;
7539;SDS011;3811;49.006;12.076;2023-10-09T07:20:50;3.70;;;3.33;;
7539;SDS011;3811;49.006;12.076;2023-10-09T07:23:27;5.23;;;2.97;;
7539;SDS011;3811;49.006;12.076;2023-10-09T07:26:02;6.87;;;3.40;;
7539;SDS011;3811;49.006;12.076;2023-10-09T07:28:45;5.30;;;3.20;;
7539;SDS011;3811;49.006;12.076;2023-10-09T07:31:17;5.93;;;3.03;;
7539;SDS011;3811;49.006;12.076;2023-10-09T07:33:52;3.30;;;2.97;;
7539;SDS011;3811;49.006;12.076;2023-10-09T07:36:46;3.90;;;2.53;;
7539;SDS011;3811;49.006;12.076;2023-10-09T07:39:14;5.27;;;3.40;;
7539;SDS011;3811;49.006;12.076;2023-10-09T07:41:42;5.33;;;2.80;;
7539;SDS011;3811;49.006;12.076;2023-10-09T07:44:29;4.67;;;2.57;;
7539;SDS011;3811;49.006;12.076;2023-10-09T07:47:07;3.07;;;2.57;;
7539;SDS011;3811;49.006;12.076;2023-10-09T07:49:42;3.60;;;2.77;;
7539;SDS011;3811;49.006;12.076;2023-10-09T07:52:14;3.77;;;2.50;;
7539;SDS011;3811;49.006;12.076;2023-10-09T07:54:42;3.03;;;2.20;;
7539;SDS011;3811;49.006;12.076;2023-10-09T07:57:18;2.80;;;2.27;;
7539;SDS011;3811;49.006;12.076;2023-10-09T07:59:52;3.07;;;2.33;;
7539;SDS011;3811;49.006;12.076;2023-10-09T08:02:27;2.60;;;2.27;;
7539;SDS011;3811;49.006;12.076;2023-10-09T08:05:01;3.37;;;2.47;;
7539;SDS011;3811;49.006;12.076;2023-10-09T08:07:43;3.80;;;2.43;;
7539;SDS011;3811;49.006;12.076;2023-10-09T08:10:20;2.60;;;2.40;;
7539;SDS011;3811;49.006;12.076;2023-10-09T08:13:05;2.77;;;2.30;;
7539;SDS011;3811;49.006;12.076;2023-10-09T08:16:07;4.37;;;2.20;;
7539;SDS011;3811;49.006;12.076;2023-10-09T08:18:42;5.20;;;2.77;;
7539;SDS011;3811;49.006;12.076;2023-10-09T08:21:10;5.37;;;2.57;;
7539;SDS011;3811;49.006;12.076;2023-10-09T08:24:04;4.03;;;3.10;;
7539;SDS011;3811;49.006;12.076;2023-10-09T08:26:51;4.03;;;2.17;;
7539;SDS011;3811;49.006;12.076;2023-10-09T08:29:38;3.53;;;1.80;;
7539;SDS011;3811;49.006;12.076;2023-10-09T08:32:12;3.93;;;2.50;;
7539;SDS011;3811;49.006;12.076;2023-10-09T08:35:03;7.43;;;2.10;;
7539;SDS011;3811;49.006;12.076;2023-10-09T08:37:44;4.93;;;1.97;;
7539;SDS011;3811;49.006;12.076;2023-10-09T08:40:14;3.80;;;2.30;;
7539;SDS011;3811;49.006;12.076;2023-10-09T08:42:46;4.73;;;2.63;;
7539;SDS011;3811;49.006;12.076;2023-10-09T08:45:20;2.80;;;2.03;;
7539;SDS011;3811;49.006;12.076;2023-10-09T08:47:51;2.90;;;2.37;;
7539;SDS011;3811;49.006;12.076;2023-10-09T08:50:20;3.90;;;2.17;;
7539;SDS011;3811;49.006;12.076;2023-10-09T08:52:47;3.07;;;2.00;;
7539;SDS011;3811;49.006;12.076;2023-10-09T08:55:16;3.03;;;2.07;;
7539;SDS011;3811;49.006;12.076;2023-10-09T08:57:44;4.07;;;2.00;;
7539;SDS011;3811;49.006;12.076;2023-10-09T09:00:16;2.67;;;1.90;;
7539;SDS011;3811;49.006;12.076;2023-10-09T09:02:46;3.23;;;2.17;;
7539;SDS011;3811;49.006;12.076;2023-10-09T09:05:19;3.73;;;2.10;;
7539;SDS011;3811;49.006;12.076;2023-10-09T09:07:46;5.63;;;2.03;;
7539;SDS011;3811;49.006;12.076;2023-10-09T09:10:14;7.63;;;2.40;;
7539;SDS011;3811;49.006;12.076;2023-10-09T09:12:46;5.63;;;2.50;;
7539;SDS011;3811;49.006;12.076;2023-10-09T09:15:18;4.70;;;2.13;;
7539;SDS011;3811;49.006;12.076;2023-10-09T09:17:46;3.50;;;2.63;;
7539;SDS011;3811;49.006;12.076;2023-10-09T09:20:22;4.40;;;2.30;;
7539;SDS011;3811;49.006;12.076;2023-10-09T09:22:55;4.70;;;2.10;;
7539;SDS011;3811;49.006;12.076;2023-10-09T09:25:22;4.63;;;2.37;;
7539;SDS011;3811;49.006;12.076;2023-10-09T09:27:51;3.10;;;2.00;;
7539;SDS011;3811;49.006;12.076;2023-10-09T09:30:25;4.60;;;2.50;;
7539;SDS011;3811;49.006;12.076;2023-10-09T09:32:58;4.60;;;2.40;;
7539;SDS011;3811;49.006;12.076;2023-10-09T09:36:00;3.53;;;2.50;;
7539;SDS011;3811;49.006;12.076;2023-10-09T09:38:29;3.47;;;2.23;;
7539;SDS011;3811;49.006;12.076;2023-10-09T09:41:06;6.60;;;2.53;;
7539;SDS011;3811;49.006;12.076;2023-10-09T09:43:36;5.60;;;2.23;;
7539;SDS011;3811;49.006;12.076;2023-10-09T09:46:06;3.77;;;2.20;;
7539;SDS011;3811;49.006;12.076;2023-10-09T09:48:39;4.83;;;2.67;;
7539;SDS011;3811;49.006;12.076;2023-10-09T09:51:12;3.00;;;2.20;;
7539;SDS011;3811;49.006;12.076;2023-10-09T09:53:40;7.60;;;2.33;;
7539;SDS011;3811;49.006;12.076;2023-10-09T09:56:07;4.50;;;2.07;;
7539;SDS011;3811;49.006;12.076;2023-10-09T09:58:42;3.00;;;1.90;;
7539;SDS011;3811;49.006;12.076;2023-10-09T10:01:12;7.83;;;1.97;;
7539;SDS011;3811;49.006;12.076;2023-10-09T10:03:50;3.37;;;2.20;;
7539;SDS011;3811;49.006;12.076;2023-10-09T10:06:24;4.17;;;2.20;;
7539;SDS011;3811;49.006;12.076;2023-10-09T10:08:53;4.30;;;2.43;;
7539;SDS011;3811;49.006;12.076;2023-10-09T10:14:10;2.43;;;1.83;;
7539;SDS011;3811;49.006;12.076;2023-10-09T10:16:59;4.43;;;2.30;;
7539;SDS011;3811;49.006;12.076;2023-10-09T10:22:27;4.57;;;2.50;;
7539;SDS011;3811;49.006;12.076;2023-10-09T10:24:55;2.90;;;2.17;;
7539;SDS011;3811;49.006;12.076;2023-10-09T10:27:26;3.23;;;2.10;;
7539;SDS011;3811;49.006;12.076;2023-10-09T10:33:02;4.77;;;2.40;;
7539;SDS011;3811;49.006;12.076;2023-10-09T10:35:37;5.27;;;2.37;;
7539;SDS011;3811;49.006;12.076;2023-10-09T10:38:32;6.23;;;2.37;;
7539;SDS011;3811;49.006;12.076;2023-10-09T10:41:11;4.77;;;2.37;;
7539;SDS011;3811;49.006;12.076;2023-10-09T10:43:41;7.57;;;1.93;;
7539;SDS011;3811;49.006;12.076;2023-10-09T10:46:20;4.33;;;2.53;;
7539;SDS011;3811;49.006;12.076;2023-10-09T10:49:03;3.93;;;2.30;;
7539;SDS011;3811;49.006;12.076;2023-10-09T10:51:40;3.50;;;2.73;;
7539;SDS011;3811;49.006;12.076;2023-10-09T10:54:19;4.70;;;2.03;;
7539;SDS011;3811;49.006;12.076;2023-10-09T10:57:14;5.67;;;2.07;;
7539;SDS011;3811;49.006;12.076;2023-10-09T10:59:53;8.00;;;2.73;;
7539;SDS011;3811;49.006;12.076;2023-10-09T11:02:38;3.70;;;2.50;;
7539;SDS011;3811;49.006;12.076;2023-10-09T11:05:06;5.13;;;2.47;;
7539;SDS011;3811;49.006;12.076;2023-10-09T11:07:50;6.00;;;2.50;;
7539;SDS011;3811;49.006;12.076;2023-10-09T11:10:24;5.20;;;2.67;;
7539;SDS011;3811;49.006;12.076;2023-10-09T11:12:57;2.73;;;2.17;;
7539;SDS011;3811;49.006;12.076;2023-10-09T11:16:06;4.90;;;2.17;;
7539;SDS011;3811;49.006;12.076;2023-10-09T11:18:54;4.83;;;2.07;;
7539;SDS011;3811;49.006;12.076;2023-10-09T11:21:29;3.93;;;2.80;;
7539;SDS011;3811;49.006;12.076;2023-10-09T11:24:06;3.53;;;2.53;;
7539;SDS011;3811;49.006;12.076;2023-10-09T11:26:51;5.67;;;2.40;;
7539;SDS011;3811;49.006;12.076;2023-10-09T11:29:21;5.57;;;2.40;;
7539;SDS011;3811;49.006;12.076;2023-10-09T11:32:15;5.77;;;2.93;;
7539;SDS011;3811;49.006;12.076;2023-10-09T11:34:43;11.67;;;2.73;;
7539;SDS011;3811;49.006;12.076;2023-10-09T11:37:17;4.90;;;2.43;;
7539;SDS011;3811;49.006;12.076;2023-10-09T11:40:03;5.17;;;2.77;;
7539;SDS011;3811;49.006;12.076;2023-10-09T11:42:48;2.17;;;1.97;;
7539;SDS011;3811;49.006;12.076;2023-10-09T11:45:19;4.27;;;2.53;;
7539;SDS011;3811;49.006;12.076;2023-10-09T11:47:51;4.47;;;2.50;;
7539;SDS011;3811;49.006;12.076;2023-10-09T11:53:09;5.20;;;2.57;;
7539;SDS011;3811;49.006;12.076;2023-10-09T11:55:44;6.87;;;2.50;;
7539;SDS011;3811;49.006;12.076;2023-10-09T11:58:14;3.03;;;2.10;;
7539;SDS011;3811;49.006;12.076;2023-10-09T12:00:48;6.37;;;2.27;;
7539;SDS011;3811;49.006;12.076;2023-10-09T12:03:18;4.23;;;2.00;;
7539;SDS011;3811;49.006;12.076;2023-10-09T12:05:48;1.83;;;1.57;;
7539;SDS011;3811;49.006;12.076;2023-10-09T12:08:15;8.47;;;2.30;;
7539;SDS011;3811;49.006;12.076;2023-10-09T12:10:47;2.77;;;1.87;;
7539;SDS011;3811;49.006;12.076;2023-10-09T12:13:14;4.20;;;2.20;;
7539;SDS011;3811;49.006;12.076;2023-10-09T12:15:41;8.40;;;2.47;;
7539;SDS011;3811;49.006;12.076;2023-10-09T12:18:11;2.57;;;2.37;;
7539;SDS011;3811;49.006;12.076;2023-10-09T12:20:42;5.07;;;2.27;;
7539;SDS011;3811;49.006;12.076;2023-10-09T12:23:16;5.33;;;2.23;;
7539;SDS011;3811;49.006;12.076;2023-10-09T12:25:43;7.33;;;3.13;;
7539;SDS011;3811;49.006;12.076;2023-10-09T12:28:11;1.90;;;1.80;;
7539;SDS011;3811;49.006;12.076;2023-10-09T12:30:38;3.17;;;2.10;;
7539;SDS011;3811;49.006;12.076;2023-10-09T12:33:06;3.37;;;2.03;;
7539;SDS011;3811;49.006;12.076;2023-10-09T12:35:36;3.80;;;1.73;;
7539;SDS011;3811;49.006;12.076;2023-10-09T12:38:04;3.60;;;2.20;;
7539;SDS011;3811;49.006;12.076;2023-10-09T12:40:34;3.67;;;2.07;;
7539;SDS011;3811;49.006;12.076;2023-10-09T12:43:01;2.23;;;2.03;;
7539;SDS011;3811;49.006;12.076;2023-10-09T12:45:28;6.73;;;1.90;;
7539;SDS011;3811;49.006;12.076;2023-10-09T12:47:58;3.00;;;2.17;;
7539;SDS011;3811;49.006;12.076;2023-10-09T12:50:28;2.20;;;1.97;;
7539;SDS011;3811;49.006;12.076;2023-10-09T12:52:58;6.57;;;2.60;;
7539;SDS011;3811;49.006;12.076;2023-10-09T12:55:35;2.50;;;1.80;;
7539;SDS011;3811;49.006;12.076;2023-10-09T12:58:05;3.67;;;1.97;;
7539;SDS011;3811;49.006;12.076;2023-10-09T13:00:33;2.73;;;1.83;;
7539;SDS011;3811;49.006;12.076;2023-10-09T13:03:03;4.33;;;2.10;;
7539;SDS011;3811;49.006;12.076;2023-10-09T13:05:42;4.90;;;2.37;;
7539;SDS011;3811;49.006;12.076;2023-10-09T13:08:17;5.03;;;2.57;;
7539;SDS011;3811;49.006;12.076;2023-10-09T13:10:48;3.03;;;2.03;;
7539;SDS011;3811;49.006;12.076;2023-10-09T13:13:24;3.87;;;2.40;;
7539;SDS011;3811;49.006;12.076;2023-10-09T13:16:06;4.30;;;1.93;;
7539;SDS011;3811;49.006;12.076;2023-10-09T13:18:36;3.47;;;2.23;;
7539;SDS011;3811;49.006;12.076;2023-10-09T13:21:04;4.10;;;2.00;;
7539;SDS011;3811;49.006;12.076;2023-10-09T13:23:31;3.90;;;2.10;;
7539;SDS011;3811;49.006;12.076;2023-10-09T13:26:09;3.17;;;2.10;;
7539;SDS011;3811;49.006;12.076;2023-10-09T13:28:47;8.30;;;2.13;;
7539;SDS011;3811;49.006;12.076;2023-10-09T13:31:15;7.20;;;2.83;;
7539;SDS011;3811;49.006;12.076;2023-10-09T13:33:43;3.10;;;2.30;;
7539;SDS011;3811;49.006;12.076;2023-10-09T13:36:11;4.87;;;2.27;;
7539;SDS011;3811;49.006;12.076;2023-10-09T13:38:52;4.23;;;2.33;;
7539;SDS011;3811;49.006;12.076;2023-10-09T13:41:21;2.23;;;2.00;;
7539;SDS011;3811;49.006;12.076;2023-10-09T13:43:51;4.60;;;2.20;;
7539;SDS011;3811;49.006;12.076;2023-10-09T13:46:18;3.27;;;1.50;;
7539;SDS011;3811;49.006;12.076;2023-10-09T13:48:45;9.83;;;2.67;;
7539;SDS011;3811;49.006;12.076;2023-10-09T13:51:14;2.53;;;1.97;;
7539;SDS011;3811;49.006;12.076;2023-10-09T13:53:43;4.83;;;1.90;;
7539;SDS011;3811;49.006;12.076;2023-10-09T13:56:13;2.70;;;2.00;;
7539;SDS011;3811;49.006;12.076;2023-10-09T13:58:48;3.43;;;1.87;;
7539;SDS011;3811;49.006;12.076;2023-10-09T14:01:16;2.83;;;2.03;;
7539;SDS011;3811;49.006;12.076;2023-10-09T14:03:53;7.87;;;2.00;;
7539;SDS011;3811;49.006;12.076;2023-10-09T14:06:20;1.60;;;1.50;;
7539;SDS011;3811;49.006;12.076;2023-10-09T14:08:55;4.80;;;2.07;;
7539;SDS011;3811;49.006;12.076;2023-10-09T14:11:23;1.90;;;1.33;;
7539;SDS011;3811;49.006;12.076;2023-10-09T14:13:51;6.23;;;2.10;;
7539;SDS011;3811;49.006;12.076;2023-10-09T14:16:19;2.70;;;1.93;;
7539;SDS011;3811;49.006;12.076;2023-10-09T14:18:54;3.77;;;2.00;;
7539;SDS011;3811;49.006;12.076;2023-10-09T14:21:23;4.70;;;1.43;;
7539;SDS011;3811;49.006;12.076;2023-10-09T14:23:51;2.07;;;1.50;;
7539;SDS011;3811;49.006;12.076;2023-10-09T14:26:22;1.77;;;1.50;;
7539;SDS011;3811;49.006;12.076;2023-10-09T14:28:52;9.40;;;2.13;;
7539;SDS011;3811;49.006;12.076;2023-10-09T14:31:21;6.50;;;1.60;;
7539;SDS011;3811;49.006;12.076;2023-10-09T14:33:52;2.77;;;1.70;;
7539;SDS011;3811;49.006;12.076;2023-10-09T14:36:19;3.83;;;1.60;;
7539;SDS011;3811;49.006;12.076;2023-10-09T14:38:48;5.17;;;1.77;;
7539;SDS011;3811;49.006;12.076;2023-10-09T14:41:18;4.50;;;1.47;;
7539;SDS011;3811;49.006;12.076;2023-10-09T14:43:47;5.47;;;2.50;;
7539;SDS011;3811;49.006;12.076;2023-10-09T14:46:15;3.37;;;1.90;;
7539;SDS011;3811;49.006;12.076;2023-10-09T14:48:48;2.07;;;1.37;;
7539;SDS011;3811;49.006;12.076;2023-10-09T14:51:18;4.33;;;1.90;;
7539;SDS011;3811;49.006;12.076;2023-10-09T14:53:52;3.60;;;1.60;;
7539;SDS011;3811;49.006;12.076;2023-10-09T14:56:21;2.07;;;1.40;;
7539;SDS011;3811;49.006;12.076;2023-10-09T14:58:54;2.70;;;1.60;;
7539;SDS011;3811;49.006;12.076;2023-10-09T15:01:25;2.00;;;0.97;;
7539;SDS011;3811;49.006;12.076;2023-10-09T15:03:54;2.50;;;1.70;;
7539;SDS011;3811;49.006;12.076;2023-10-09T15:06:22;5.73;;;2.30;;
7539;SDS011;3811;49.006;12.076;2023-10-09T15:08:53;5.13;;;1.70;;
7539;SDS011;3811;49.006;12.076;2023-10-09T15:11:21;2.70;;;2.30;;
7539;SDS011;3811;49.006;12.076;2023-10-09T15:13:49;7.90;;;1.73;;
7539;SDS011;3811;49.006;12.076;2023-10-09T15:16:18;2.00;;;1.37;;
7539;SDS011;3811;49.006;12.076;2023-10-09T15:18:47;2.20;;;1.40;;
7539;SDS011;3811;49.006;12.076;2023-10-09T15:21:18;1.90;;;1.40;;
7539;SDS011;3811;49.006;12.076;2023-10-09T15:23:48;8.43;;;1.77;;
7539;SDS011;3811;49.006;12.076;2023-10-09T15:26:16;4.20;;;2.10;;
7539;SDS011;3811;49.006;12.076;2023-10-09T15:28:43;4.37;;;1.97;;
7539;SDS011;3811;49.006;12.076;2023-10-09T15:31:11;1.43;;;1.10;;
7539;SDS011;3811;49.006;12.076;2023-10-09T15:33:41;6.27;;;1.73;;
7539;SDS011;3811;49.006;12.076;2023-10-09T15:36:10;3.67;;;2.23;;
7539;SDS011;3811;49.006;12.076;2023-10-09T15:38:38;4.50;;;1.40;;
7539;SDS011;3811;49.006;12.076;2023-10-09T15:41:05;3.50;;;1.27;;
7539;SDS011;3811;49.006;12.076;2023-10-09T15:43:32;6.47;;;1.93;;
7539;SDS011;3811;49.006;12.076;2023-10-09T15:45:59;2.97;;;1.80;;
7539;SDS011;3811;49.006;12.076;2023-10-09T15:48:27;3.10;;;2.00;;
7539;SDS011;3811;49.006;12.076;2023-10-09T15:50:54;5.33;;;1.80;;
7539;SDS011;3811;49.006;12.076;2023-10-09T15:53:24;5.53;;;2.03;;
7539;SDS011;3811;49.006;12.076;2023-10-09T15:55:51;1.60;;;1.50;;